sensor_id;sensor_type;location;lat;lon;timestamp;temperature;humidity
22235;DHT22;11286;45.596;5.284;2022-12-22T00:02:29;11.90;99.90
22235;DHT22;11286;45.596;5.284;2022-12-22T00:05:19;11.90;99.90
22235;DHT22;11286;45.596;5.284;2022-12-22T00:08:04;11.90;99.90
22235;DHT22;11286;45.596;5.284;2022-12-22T00:10:48;11.80;99.90
22235;DHT22;11286;45.596;5.284;2022-12-22T00:13:33;11.80;99.90
22235;DHT22;11286;45.596;5.284;2022-12-22T00:16:18;11.80;99.90
22235;DHT22;11286;45.596;5.284;2022-12-22T00:19:04;11.70;99.90
22235;DHT22;11286;45.596;5.284;2022-12-22T00:21:53;11.80;99.90
22235;DHT22;11286;45.596;5.284;2022-12-22T00:24:37;11.80;99.90
22235;DHT22;11286;45.596;5.284;2022-12-22T00:27:27;11.90;99.90
22235;DHT22;11286;45.596;5.284;2022-12-22T00:30:13;12.00;99.90
22235;DHT22;11286;45.596;5.284;2022-12-22T00:32:58;12.00;99.90
22235;DHT22;11286;45.596;5.284;2022-12-22T00:35:43;12.00;99.90
22235;DHT22;11286;45.596;5.284;2022-12-22T00:38:27;12.00;99.90
22235;DHT22;11286;45.596;5.284;2022-12-22T00:41:12;12.00;99.90
22235;DHT22;11286;45.596;5.284;2022-12-22T00:43:56;11.90;99.90
22235;DHT22;11286;45.596;5.284;2022-12-22T00:46:41;11.80;99.90
22235;DHT22;11286;45.596;5.284;2022-12-22T00:49:27;11.70;99.90
22235;DHT22;11286;45.596;5.284;2022-12-22T00:52:13;11.70;99.90
22235;DHT22;11286;45.596;5.284;2022-12-22T00:54:58;11.70;99.90
22235;DHT22;11286;45.596;5.284;2022-12-22T00:57:42;11.80;99.90
22235;DHT22;11286;45.596;5.284;2022-12-22T01:00:27;11.80;99.90
22235;DHT22;11286;45.596;5.284;2022-12-22T01:03:12;11.80;99.90
22235;DHT22;11286;45.596;5.284;2022-12-22T01:05:58;11.60;99.90
22235;DHT22;11286;45.596;5.284;2022-12-22T01:08:44;11.80;99.90
22235;DHT22;11286;45.596;5.284;2022-12-22T01:11:28;11.70;99.90
22235;DHT22;11286;45.596;5.284;2022-12-22T01:14:14;11.80;99.90
22235;DHT22;11286;45.596;5.284;2022-12-22T01:16:59;11.70;99.90
22235;DHT22;11286;45.596;5.284;2022-12-22T01:19:43;11.60;99.90
22235;DHT22;11286;45.596;5.284;2022-12-22T01:22:28;11.60;99.90
22235;DHT22;11286;45.596;5.284;2022-12-22T01:25:15;11.60;99.90
22235;DHT22;11286;45.596;5.284;2022-12-22T01:28:00;11.60;99.90
22235;DHT22;11286;45.596;5.284;2022-12-22T01:30:45;11.70;99.90
22235;DHT22;11286;45.596;5.284;2022-12-22T01:33:30;11.70;99.90
22235;DHT22;11286;45.596;5.284;2022-12-22T01:36:15;11.60;99.90
22235;DHT22;11286;45.596;5.284;2022-12-22T01:39:00;11.70;99.90
22235;DHT22;11286;45.596;5.284;2022-12-22T01:41:45;11.60;99.90
22235;DHT22;11286;45.596;5.284;2022-12-22T01:44:31;11.70;99.90
22235;DHT22;11286;45.596;5.284;2022-12-22T01:50:20;12.00;99.90
22235;DHT22;11286;45.596;5.284;2022-12-22T01:53:09;12.10;99.90
22235;DHT22;11286;45.596;5.284;2022-12-22T01:55:54;12.00;99.90
22235;DHT22;11286;45.596;5.284;2022-12-22T01:58:43;12.10;99.90
22235;DHT22;11286;45.596;5.284;2022-12-22T02:01:31;12.10;99.90
22235;DHT22;11286;45.596;5.284;2022-12-22T02:04:18;12.30;99.90
22235;DHT22;11286;45.596;5.284;2022-12-22T02:07:17;12.30;99.90
22235;DHT22;11286;45.596;5.284;2022-12-22T02:10:18;12.40;99.90
22235;DHT22;11286;45.596;5.284;2022-12-22T02:16:27;12.40;99.90
22235;DHT22;11286;45.596;5.284;2022-12-22T02:25:18;12.50;99.90
22235;DHT22;11286;45.596;5.284;2022-12-22T02:28:05;12.50;99.90
22235;DHT22;11286;45.596;5.284;2022-12-22T02:30:50;12.50;99.90
22235;DHT22;11286;45.596;5.284;2022-12-22T02:33:35;12.50;99.90
22235;DHT22;11286;45.596;5.284;2022-12-22T02:36:40;12.60;99.90
22235;DHT22;11286;45.596;5.284;2022-12-22T02:39:57;12.70;99.90
22235;DHT22;11286;45.596;5.284;2022-12-22T02:46:25;12.60;99.90
22235;DHT22;11286;45.596;5.284;2022-12-22T02:49:15;12.60;99.90
22235;DHT22;11286;45.596;5.284;2022-12-22T02:52:13;12.70;99.90
22235;DHT22;11286;45.596;5.284;2022-12-22T02:54:59;12.70;99.90
22235;DHT22;11286;45.596;5.284;2022-12-22T02:57:43;12.80;99.90
22235;DHT22;11286;45.596;5.284;2022-12-22T03:00:27;12.80;99.90
22235;DHT22;11286;45.596;5.284;2022-12-22T03:03:11;12.80;99.90
22235;DHT22;11286;45.596;5.284;2022-12-22T03:05:55;12.80;99.90
22235;DHT22;11286;45.596;5.284;2022-12-22T03:08:39;12.80;99.90
22235;DHT22;11286;45.596;5.284;2022-12-22T03:11:23;12.70;99.90
22235;DHT22;11286;45.596;5.284;2022-12-22T03:14:07;12.80;99.90
22235;DHT22;11286;45.596;5.284;2022-12-22T03:16:52;12.80;99.90
22235;DHT22;11286;45.596;5.284;2022-12-22T03:19:36;12.80;99.90
22235;DHT22;11286;45.596;5.284;2022-12-22T03:22:20;12.70;99.90
22235;DHT22;11286;45.596;5.284;2022-12-22T03:25:04;12.60;99.90
22235;DHT22;11286;45.596;5.284;2022-12-22T03:27:49;12.60;99.90
22235;DHT22;11286;45.596;5.284;2022-12-22T03:30:14;12.70;99.90
22235;DHT22;11286;45.596;5.284;2022-12-22T03:32:40;12.70;99.90
22235;DHT22;11286;45.596;5.284;2022-12-22T03:35:06;12.70;99.90
22235;DHT22;11286;45.596;5.284;2022-12-22T03:37:32;12.60;99.90
22235;DHT22;11286;45.596;5.284;2022-12-22T03:39:57;12.60;99.90
22235;DHT22;11286;45.596;5.284;2022-12-22T03:42:23;12.60;99.90
22235;DHT22;11286;45.596;5.284;2022-12-22T03:45:09;12.70;99.90
22235;DHT22;11286;45.596;5.284;2022-12-22T03:48:13;12.60;99.90
22235;DHT22;11286;45.596;5.284;2022-12-22T03:50:38;12.70;99.90
22235;DHT22;11286;45.596;5.284;2022-12-22T03:53:04;12.70;99.90
22235;DHT22;11286;45.596;5.284;2022-12-22T03:55:30;12.70;99.90
22235;DHT22;11286;45.596;5.284;2022-12-22T03:57:55;12.70;99.90
22235;DHT22;11286;45.596;5.284;2022-12-22T04:00:21;12.70;99.90
22235;DHT22;11286;45.596;5.284;2022-12-22T04:02:47;12.80;99.90
22235;DHT22;11286;45.596;5.284;2022-12-22T04:05:12;13.00;99.90
22235;DHT22;11286;45.596;5.284;2022-12-22T04:07:38;13.00;99.90
22235;DHT22;11286;45.596;5.284;2022-12-22T04:10:04;13.00;99.90
22235;DHT22;11286;45.596;5.284;2022-12-22T04:12:51;13.10;99.90
22235;DHT22;11286;45.596;5.284;2022-12-22T04:15:25;13.00;99.90
22235;DHT22;11286;45.596;5.284;2022-12-22T04:17:51;13.10;99.90
22235;DHT22;11286;45.596;5.284;2022-12-22T04:20:18;13.10;99.90
22235;DHT22;11286;45.596;5.284;2022-12-22T04:22:43;13.20;99.90
22235;DHT22;11286;45.596;5.284;2022-12-22T04:25:09;13.10;99.90
22235;DHT22;11286;45.596;5.284;2022-12-22T04:27:35;13.10;99.90
22235;DHT22;11286;45.596;5.284;2022-12-22T04:30:01;13.10;99.90
22235;DHT22;11286;45.596;5.284;2022-12-22T04:32:27;13.20;99.90
22235;DHT22;11286;45.596;5.284;2022-12-22T04:34:52;13.10;99.90
22235;DHT22;11286;45.596;5.284;2022-12-22T04:37:18;13.00;99.90
22235;DHT22;11286;45.596;5.284;2022-12-22T04:39:43;13.10;99.90
22235;DHT22;11286;45.596;5.284;2022-12-22T04:42:09;13.10;99.90
22235;DHT22;11286;45.596;5.284;2022-12-22T04:44:35;13.10;99.90
22235;DHT22;11286;45.596;5.284;2022-12-22T04:47:00;13.00;99.90
22235;DHT22;11286;45.596;5.284;2022-12-22T04:49:26;13.10;99.90
22235;DHT22;11286;45.596;5.284;2022-12-22T04:51:51;13.00;99.90
22235;DHT22;11286;45.596;5.284;2022-12-22T04:54:17;13.10;99.90
22235;DHT22;11286;45.596;5.284;2022-12-22T04:56:43;13.10;99.90
22235;DHT22;11286;45.596;5.284;2022-12-22T04:59:08;13.00;99.90
22235;DHT22;11286;45.596;5.284;2022-12-22T05:01:34;13.10;99.90
22235;DHT22;11286;45.596;5.284;2022-12-22T05:04:00;13.00;99.90
22235;DHT22;11286;45.596;5.284;2022-12-22T05:06:25;13.00;99.90
22235;DHT22;11286;45.596;5.284;2022-12-22T05:08:51;13.20;99.90
22235;DHT22;11286;45.596;5.284;2022-12-22T05:11:16;13.10;99.90
22235;DHT22;11286;45.596;5.284;2022-12-22T05:13:42;13.10;99.90
22235;DHT22;11286;45.596;5.284;2022-12-22T05:16:12;13.10;99.90
22235;DHT22;11286;45.596;5.284;2022-12-22T05:18:40;13.10;99.90
22235;DHT22;11286;45.596;5.284;2022-12-22T05:21:14;12.90;99.90
22235;DHT22;11286;45.596;5.284;2022-12-22T05:23:41;12.80;99.90
22235;DHT22;11286;45.596;5.284;2022-12-22T05:26:07;12.80;99.90
22235;DHT22;11286;45.596;5.284;2022-12-22T05:28:33;12.80;99.90
22235;DHT22;11286;45.596;5.284;2022-12-22T05:31:07;12.70;99.90
22235;DHT22;11286;45.596;5.284;2022-12-22T05:33:33;12.70;99.90
22235;DHT22;11286;45.596;5.284;2022-12-22T05:35:59;12.70;99.90
22235;DHT22;11286;45.596;5.284;2022-12-22T05:38:24;12.70;99.90
22235;DHT22;11286;45.596;5.284;2022-12-22T05:40:50;12.80;99.90
22235;DHT22;11286;45.596;5.284;2022-12-22T05:43:16;12.70;99.90
22235;DHT22;11286;45.596;5.284;2022-12-22T05:45:43;12.80;99.90
22235;DHT22;11286;45.596;5.284;2022-12-22T05:48:10;12.80;99.90
22235;DHT22;11286;45.596;5.284;2022-12-22T05:50:36;12.90;99.90
22235;DHT22;11286;45.596;5.284;2022-12-22T05:53:02;12.90;99.90
22235;DHT22;11286;45.596;5.284;2022-12-22T05:55:28;12.90;99.90
22235;DHT22;11286;45.596;5.284;2022-12-22T05:57:54;12.80;99.90
22235;DHT22;11286;45.596;5.284;2022-12-22T06:00:20;12.80;99.90
22235;DHT22;11286;45.596;5.284;2022-12-22T06:02:45;12.80;99.90
22235;DHT22;11286;45.596;5.284;2022-12-22T06:05:12;12.80;99.90
22235;DHT22;11286;45.596;5.284;2022-12-22T06:07:39;12.80;99.90
22235;DHT22;11286;45.596;5.284;2022-12-22T06:10:06;12.90;99.90
22235;DHT22;11286;45.596;5.284;2022-12-22T06:12:32;12.80;99.90
22235;DHT22;11286;45.596;5.284;2022-12-22T06:14:58;13.00;99.90
22235;DHT22;11286;45.596;5.284;2022-12-22T06:17:23;12.90;99.90
22235;DHT22;11286;45.596;5.284;2022-12-22T06:19:49;13.00;99.90
22235;DHT22;11286;45.596;5.284;2022-12-22T06:22:14;13.00;99.90
22235;DHT22;11286;45.596;5.284;2022-12-22T06:24:40;13.00;99.90
22235;DHT22;11286;45.596;5.284;2022-12-22T06:27:06;13.00;99.90
22235;DHT22;11286;45.596;5.284;2022-12-22T06:29:31;13.00;99.90
22235;DHT22;11286;45.596;5.284;2022-12-22T06:31:57;13.00;99.90
22235;DHT22;11286;45.596;5.284;2022-12-22T06:34:23;13.00;99.90
22235;DHT22;11286;45.596;5.284;2022-12-22T06:36:48;13.00;99.90
22235;DHT22;11286;45.596;5.284;2022-12-22T06:39:15;13.00;99.90
22235;DHT22;11286;45.596;5.284;2022-12-22T06:41:41;13.00;99.90
22235;DHT22;11286;45.596;5.284;2022-12-22T06:44:26;13.00;99.90
22235;DHT22;11286;45.596;5.284;2022-12-22T06:46:51;13.00;99.90
22235;DHT22;11286;45.596;5.284;2022-12-22T06:49:18;13.00;99.90
22235;DHT22;11286;45.596;5.284;2022-12-22T06:51:43;13.10;99.90
22235;DHT22;11286;45.596;5.284;2022-12-22T06:54:09;13.20;99.90
22235;DHT22;11286;45.596;5.284;2022-12-22T06:56:35;13.10;99.90
22235;DHT22;11286;45.596;5.284;2022-12-22T06:59:00;13.20;99.90
22235;DHT22;11286;45.596;5.284;2022-12-22T07:01:26;13.10;99.90
22235;DHT22;11286;45.596;5.284;2022-12-22T07:03:52;13.20;99.90
22235;DHT22;11286;45.596;5.284;2022-12-22T07:06:18;13.20;99.90
22235;DHT22;11286;45.596;5.284;2022-12-22T07:08:45;13.20;99.90
22235;DHT22;11286;45.596;5.284;2022-12-22T07:11:11;13.10;99.90
22235;DHT22;11286;45.596;5.284;2022-12-22T07:13:37;13.10;99.90
22235;DHT22;11286;45.596;5.284;2022-12-22T07:16:04;13.10;99.90
22235;DHT22;11286;45.596;5.284;2022-12-22T07:18:33;13.10;99.90
22235;DHT22;11286;45.596;5.284;2022-12-22T07:21:00;13.00;99.90
22235;DHT22;11286;45.596;5.284;2022-12-22T07:23:26;13.00;99.90
22235;DHT22;11286;45.596;5.284;2022-12-22T07:25:52;13.00;99.90
22235;DHT22;11286;45.596;5.284;2022-12-22T07:28:18;13.00;99.90
22235;DHT22;11286;45.596;5.284;2022-12-22T07:30:44;13.00;99.90
22235;DHT22;11286;45.596;5.284;2022-12-22T07:33:09;12.90;99.90
22235;DHT22;11286;45.596;5.284;2022-12-22T07:35:35;13.00;99.90
22235;DHT22;11286;45.596;5.284;2022-12-22T07:38:01;12.90;99.90
22235;DHT22;11286;45.596;5.284;2022-12-22T07:40:27;12.90;99.90
22235;DHT22;11286;45.596;5.284;2022-12-22T07:43:00;12.90;99.90
22235;DHT22;11286;45.596;5.284;2022-12-22T07:45:26;12.90;99.90
22235;DHT22;11286;45.596;5.284;2022-12-22T07:47:58;13.00;99.90
22235;DHT22;11286;45.596;5.284;2022-12-22T07:50:24;13.00;99.90
22235;DHT22;11286;45.596;5.284;2022-12-22T07:52:59;13.00;99.90
22235;DHT22;11286;45.596;5.284;2022-12-22T07:55:28;13.00;99.90
22235;DHT22;11286;45.596;5.284;2022-12-22T07:57:54;13.00;99.90
22235;DHT22;11286;45.596;5.284;2022-12-22T08:00:21;13.00;99.90
22235;DHT22;11286;45.596;5.284;2022-12-22T08:02:51;13.10;99.90
22235;DHT22;11286;45.596;5.284;2022-12-22T08:05:17;13.10;99.90
22235;DHT22;11286;45.596;5.284;2022-12-22T08:07:43;13.20;99.90
22235;DHT22;11286;45.596;5.284;2022-12-22T08:10:10;13.20;99.90
22235;DHT22;11286;45.596;5.284;2022-12-22T08:12:36;13.20;99.90
22235;DHT22;11286;45.596;5.284;2022-12-22T08:15:02;13.20;99.90
22235;DHT22;11286;45.596;5.284;2022-12-22T08:17:28;13.30;99.90
22235;DHT22;11286;45.596;5.284;2022-12-22T08:19:54;13.30;99.90
22235;DHT22;11286;45.596;5.284;2022-12-22T08:22:20;13.30;99.90
22235;DHT22;11286;45.596;5.284;2022-12-22T08:24:53;13.30;99.90
22235;DHT22;11286;45.596;5.284;2022-12-22T08:27:37;13.30;99.90
22235;DHT22;11286;45.596;5.284;2022-12-22T08:30:05;13.40;99.90
22235;DHT22;11286;45.596;5.284;2022-12-22T08:32:33;13.30;99.90
22235;DHT22;11286;45.596;5.284;2022-12-22T08:34:59;13.40;99.90
22235;DHT22;11286;45.596;5.284;2022-12-22T08:37:26;13.30;99.90
22235;DHT22;11286;45.596;5.284;2022-12-22T08:39:57;13.30;99.90
22235;DHT22;11286;45.596;5.284;2022-12-22T08:42:25;13.30;99.90
22235;DHT22;11286;45.596;5.284;2022-12-22T08:44:51;13.40;99.90
22235;DHT22;11286;45.596;5.284;2022-12-22T08:47:19;13.40;99.90
22235;DHT22;11286;45.596;5.284;2022-12-22T08:49:45;13.40;99.90
22235;DHT22;11286;45.596;5.284;2022-12-22T08:52:11;13.30;99.90
22235;DHT22;11286;45.596;5.284;2022-12-22T08:54:36;13.40;99.90
22235;DHT22;11286;45.596;5.284;2022-12-22T08:57:02;13.40;99.90
22235;DHT22;11286;45.596;5.284;2022-12-22T08:59:28;13.50;99.90
22235;DHT22;11286;45.596;5.284;2022-12-22T09:01:53;13.50;99.90
22235;DHT22;11286;45.596;5.284;2022-12-22T09:04:20;13.50;99.90
22235;DHT22;11286;45.596;5.284;2022-12-22T09:06:47;13.40;99.90
22235;DHT22;11286;45.596;5.284;2022-12-22T09:09:14;13.50;99.90
22235;DHT22;11286;45.596;5.284;2022-12-22T09:11:40;13.70;99.90
22235;DHT22;11286;45.596;5.284;2022-12-22T09:14:07;13.70;99.90
22235;DHT22;11286;45.596;5.284;2022-12-22T09:16:34;13.50;99.90
22235;DHT22;11286;45.596;5.284;2022-12-22T09:19:00;13.70;99.90
22235;DHT22;11286;45.596;5.284;2022-12-22T09:21:27;13.70;99.90
22235;DHT22;11286;45.596;5.284;2022-12-22T09:23:53;13.70;99.90
22235;DHT22;11286;45.596;5.284;2022-12-22T09:26:21;13.70;99.90
22235;DHT22;11286;45.596;5.284;2022-12-22T09:28:47;13.80;99.90
22235;DHT22;11286;45.596;5.284;2022-12-22T09:31:13;13.80;99.90
22235;DHT22;11286;45.596;5.284;2022-12-22T09:33:38;13.70;99.90
22235;DHT22;11286;45.596;5.284;2022-12-22T09:36:06;13.70;99.90
22235;DHT22;11286;45.596;5.284;2022-12-22T09:38:32;13.80;99.90
22235;DHT22;11286;45.596;5.284;2022-12-22T09:40:58;13.80;99.90
22235;DHT22;11286;45.596;5.284;2022-12-22T09:43:29;13.80;99.90
22235;DHT22;11286;45.596;5.284;2022-12-22T09:45:56;13.90;99.90
22235;DHT22;11286;45.596;5.284;2022-12-22T09:48:27;13.90;99.90
22235;DHT22;11286;45.596;5.284;2022-12-22T09:50:56;13.90;99.90
22235;DHT22;11286;45.596;5.284;2022-12-22T09:53:23;14.00;99.90
22235;DHT22;11286;45.596;5.284;2022-12-22T09:55:49;14.10;99.90
22235;DHT22;11286;45.596;5.284;2022-12-22T09:58:27;14.20;99.90
22235;DHT22;11286;45.596;5.284;2022-12-22T10:06:19;14.60;99.90
22235;DHT22;11286;45.596;5.284;2022-12-22T10:08:45;14.70;99.90
22235;DHT22;11286;45.596;5.284;2022-12-22T10:11:16;14.70;99.90
22235;DHT22;11286;45.596;5.284;2022-12-22T10:13:42;14.90;99.90
22235;DHT22;11286;45.596;5.284;2022-12-22T10:16:21;15.10;99.90
22235;DHT22;11286;45.596;5.284;2022-12-22T10:18:57;15.60;99.90
22235;DHT22;11286;45.596;5.284;2022-12-22T10:21:23;16.20;99.90
22235;DHT22;11286;45.596;5.284;2022-12-22T10:23:49;17.50;99.90
22235;DHT22;11286;45.596;5.284;2022-12-22T10:26:26;18.00;99.90
22235;DHT22;11286;45.596;5.284;2022-12-22T10:29:06;17.80;99.90
22235;DHT22;11286;45.596;5.284;2022-12-22T10:31:36;17.30;99.90
22235;DHT22;11286;45.596;5.284;2022-12-22T10:36:36;18.30;99.90
22235;DHT22;11286;45.596;5.284;2022-12-22T10:39:07;20.30;99.90
22235;DHT22;11286;45.596;5.284;2022-12-22T10:41:40;20.90;99.90
22235;DHT22;11286;45.596;5.284;2022-12-22T10:44:19;21.60;99.90
22235;DHT22;11286;45.596;5.284;2022-12-22T10:46:49;23.90;99.90
22235;DHT22;11286;45.596;5.284;2022-12-22T10:51:46;23.60;99.90
22235;DHT22;11286;45.596;5.284;2022-12-22T10:54:30;25.00;99.90
22235;DHT22;11286;45.596;5.284;2022-12-22T10:57:09;23.50;99.90
22235;DHT22;11286;45.596;5.284;2022-12-22T10:59:58;22.60;99.90
22235;DHT22;11286;45.596;5.284;2022-12-22T11:02:25;23.30;99.90
22235;DHT22;11286;45.596;5.284;2022-12-22T11:04:52;25.20;99.90
22235;DHT22;11286;45.596;5.284;2022-12-22T11:07:18;23.30;99.90
22235;DHT22;11286;45.596;5.284;2022-12-22T11:09:44;20.60;99.90
22235;DHT22;11286;45.596;5.284;2022-12-22T11:12:35;19.10;99.90
22235;DHT22;11286;45.596;5.284;2022-12-22T11:17:55;18.30;99.90
22235;DHT22;11286;45.596;5.284;2022-12-22T11:20:57;17.80;99.90
22235;DHT22;11286;45.596;5.284;2022-12-22T11:29:59;17.50;99.90
22235;DHT22;11286;45.596;5.284;2022-12-22T11:41:24;19.90;99.90
22235;DHT22;11286;45.596;5.284;2022-12-22T11:47:37;22.70;99.90
22235;DHT22;11286;45.596;5.284;2022-12-22T11:49:38;24.50;99.90
22235;DHT22;11286;45.596;5.284;2022-12-22T11:58:03;22.20;99.90
22235;DHT22;11286;45.596;5.284;2022-12-22T12:00:41;20.90;99.90
22235;DHT22;11286;45.596;5.284;2022-12-22T12:06:16;21.10;99.90
22235;DHT22;11286;45.596;5.284;2022-12-22T12:09:05;19.80;99.90
22235;DHT22;11286;45.596;5.284;2022-12-22T12:11:40;18.80;99.90
22235;DHT22;11286;45.596;5.284;2022-12-22T12:14:37;18.60;99.90
22235;DHT22;11286;45.596;5.284;2022-12-22T12:20:02;17.70;99.90
22235;DHT22;11286;45.596;5.284;2022-12-22T12:22:42;17.50;99.90
22235;DHT22;11286;45.596;5.284;2022-12-22T12:27:53;17.10;99.90
22235;DHT22;11286;45.596;5.284;2022-12-22T12:30:21;17.00;99.90
22235;DHT22;11286;45.596;5.284;2022-12-22T12:32:55;16.90;99.90
22235;DHT22;11286;45.596;5.284;2022-12-22T12:35:48;16.90;99.90
22235;DHT22;11286;45.596;5.284;2022-12-22T12:43:42;16.50;99.90
22235;DHT22;11286;45.596;5.284;2022-12-22T12:52:03;16.70;99.90
22235;DHT22;11286;45.596;5.284;2022-12-22T12:56:59;17.10;99.90
22235;DHT22;11286;45.596;5.284;2022-12-22T13:10:28;16.40;99.90
22235;DHT22;11286;45.596;5.284;2022-12-22T13:12:54;16.20;99.90
22235;DHT22;11286;45.596;5.284;2022-12-22T13:15:41;16.20;99.90
22235;DHT22;11286;45.596;5.284;2022-12-22T13:21:05;16.20;99.90
22235;DHT22;11286;45.596;5.284;2022-12-22T13:23:35;16.20;99.90
22235;DHT22;11286;45.596;5.284;2022-12-22T13:26:09;16.20;99.90
22235;DHT22;11286;45.596;5.284;2022-12-22T13:28:36;16.20;99.90
22235;DHT22;11286;45.596;5.284;2022-12-22T13:31:11;16.20;99.90
22235;DHT22;11286;45.596;5.284;2022-12-22T13:33:39;16.00;99.90
22235;DHT22;11286;45.596;5.284;2022-12-22T13:36:11;16.10;99.90
22235;DHT22;11286;45.596;5.284;2022-12-22T13:38:40;16.10;99.90
22235;DHT22;11286;45.596;5.284;2022-12-22T13:41:26;16.10;99.90
22235;DHT22;11286;45.596;5.284;2022-12-22T13:43:55;16.00;99.90
22235;DHT22;11286;45.596;5.284;2022-12-22T13:46:21;15.90;99.90
22235;DHT22;11286;45.596;5.284;2022-12-22T13:48:52;15.90;99.90
22235;DHT22;11286;45.596;5.284;2022-12-22T13:51:20;15.80;99.90
22235;DHT22;11286;45.596;5.284;2022-12-22T13:53:59;15.80;99.90
22235;DHT22;11286;45.596;5.284;2022-12-22T13:56:49;15.80;99.90
22235;DHT22;11286;45.596;5.284;2022-12-22T13:59:32;15.80;99.90
22235;DHT22;11286;45.596;5.284;2022-12-22T14:04:34;15.80;99.90
22235;DHT22;11286;45.596;5.284;2022-12-22T14:07:17;15.80;99.90
22235;DHT22;11286;45.596;5.284;2022-12-22T14:09:48;15.80;99.90
22235;DHT22;11286;45.596;5.284;2022-12-22T14:12:20;15.70;99.90
22235;DHT22;11286;45.596;5.284;2022-12-22T14:14:48;15.60;99.90
22235;DHT22;11286;45.596;5.284;2022-12-22T14:19:48;15.50;99.90
22235;DHT22;11286;45.596;5.284;2022-12-22T14:22:17;15.60;99.90
22235;DHT22;11286;45.596;5.284;2022-12-22T14:24:47;15.60;99.90
22235;DHT22;11286;45.596;5.284;2022-12-22T14:27:38;15.60;99.90
22235;DHT22;11286;45.596;5.284;2022-12-22T14:32:43;15.60;99.90
22235;DHT22;11286;45.596;5.284;2022-12-22T14:40:36;15.50;99.90
22235;DHT22;11286;45.596;5.284;2022-12-22T14:43:05;15.40;99.90
22235;DHT22;11286;45.596;5.284;2022-12-22T14:45:32;15.30;99.90
22235;DHT22;11286;45.596;5.284;2022-12-22T14:47:58;15.20;99.90
22235;DHT22;11286;45.596;5.284;2022-12-22T14:50:26;15.20;99.90
22235;DHT22;11286;45.596;5.284;2022-12-22T14:52:59;15.30;99.90
22235;DHT22;11286;45.596;5.284;2022-12-22T14:55:38;15.20;99.90
22235;DHT22;11286;45.596;5.284;2022-12-22T14:58:14;15.20;99.90
22235;DHT22;11286;45.596;5.284;2022-12-22T15:00:48;15.20;99.90
22235;DHT22;11286;45.596;5.284;2022-12-22T15:03:37;15.20;99.90
22235;DHT22;11286;45.596;5.284;2022-12-22T15:06:33;15.10;99.90
22235;DHT22;11286;45.596;5.284;2022-12-22T15:09:06;15.00;99.90
22235;DHT22;11286;45.596;5.284;2022-12-22T15:11:35;15.00;99.90
22235;DHT22;11286;45.596;5.284;2022-12-22T15:14:02;15.00;99.90
22235;DHT22;11286;45.596;5.284;2022-12-22T15:16:29;15.00;99.90
22235;DHT22;11286;45.596;5.284;2022-12-22T15:18:54;14.90;99.90
22235;DHT22;11286;45.596;5.284;2022-12-22T15:21:20;14.90;99.90
22235;DHT22;11286;45.596;5.284;2022-12-22T15:23:47;14.90;99.90
22235;DHT22;11286;45.596;5.284;2022-12-22T15:26:13;14.90;99.90
22235;DHT22;11286;45.596;5.284;2022-12-22T15:28:39;15.00;99.90
22235;DHT22;11286;45.596;5.284;2022-12-22T15:31:12;14.90;99.90
22235;DHT22;11286;45.596;5.284;2022-12-22T15:33:39;14.90;99.90
22235;DHT22;11286;45.596;5.284;2022-12-22T15:36:08;14.90;99.90
22235;DHT22;11286;45.596;5.284;2022-12-22T15:38:34;14.90;99.90
22235;DHT22;11286;45.596;5.284;2022-12-22T15:40:59;14.90;99.90
22235;DHT22;11286;45.596;5.284;2022-12-22T15:43:25;14.80;99.90
22235;DHT22;11286;45.596;5.284;2022-12-22T15:45:51;14.70;99.90
22235;DHT22;11286;45.596;5.284;2022-12-22T15:48:22;14.70;99.90
22235;DHT22;11286;45.596;5.284;2022-12-22T15:50:50;14.70;99.90
22235;DHT22;11286;45.596;5.284;2022-12-22T15:53:17;14.70;99.90
22235;DHT22;11286;45.596;5.284;2022-12-22T15:55:45;14.80;99.90
22235;DHT22;11286;45.596;5.284;2022-12-22T15:58:14;14.80;99.90
22235;DHT22;11286;45.596;5.284;2022-12-22T16:00:41;14.80;99.90
22235;DHT22;11286;45.596;5.284;2022-12-22T16:03:08;14.70;99.90
22235;DHT22;11286;45.596;5.284;2022-12-22T16:05:34;14.60;99.90
22235;DHT22;11286;45.596;5.284;2022-12-22T16:08:01;14.60;99.90
22235;DHT22;11286;45.596;5.284;2022-12-22T16:10:32;14.60;99.90
22235;DHT22;11286;45.596;5.284;2022-12-22T16:13:00;14.60;99.90
22235;DHT22;11286;45.596;5.284;2022-12-22T16:15:30;14.60;99.90
22235;DHT22;11286;45.596;5.284;2022-12-22T16:17:57;14.60;99.90
22235;DHT22;11286;45.596;5.284;2022-12-22T16:20:24;14.60;99.90
22235;DHT22;11286;45.596;5.284;2022-12-22T16:22:50;14.70;99.90
22235;DHT22;11286;45.596;5.284;2022-12-22T16:25:25;14.60;99.90
22235;DHT22;11286;45.596;5.284;2022-12-22T16:27:51;14.60;99.90
22235;DHT22;11286;45.596;5.284;2022-12-22T16:30:21;14.40;99.90
22235;DHT22;11286;45.596;5.284;2022-12-22T16:32:47;14.20;99.90
22235;DHT22;11286;45.596;5.284;2022-12-22T16:35:18;14.00;99.90
22235;DHT22;11286;45.596;5.284;2022-12-22T16:37:46;14.00;99.90
22235;DHT22;11286;45.596;5.284;2022-12-22T16:40:13;14.10;99.90
22235;DHT22;11286;45.596;5.284;2022-12-22T16:42:46;14.10;99.90
22235;DHT22;11286;45.596;5.284;2022-12-22T16:45:18;13.90;99.90
22235;DHT22;11286;45.596;5.284;2022-12-22T16:47:45;13.70;99.90
22235;DHT22;11286;45.596;5.284;2022-12-22T16:50:16;13.70;99.90
22235;DHT22;11286;45.596;5.284;2022-12-22T16:52:42;13.70;99.90
22235;DHT22;11286;45.596;5.284;2022-12-22T16:55:20;13.60;99.90
22235;DHT22;11286;45.596;5.284;2022-12-22T16:57:46;13.60;99.90
22235;DHT22;11286;45.596;5.284;2022-12-22T17:00:20;13.50;99.90
22235;DHT22;11286;45.596;5.284;2022-12-22T17:03:12;12.90;99.90
22235;DHT22;11286;45.596;5.284;2022-12-22T17:05:43;12.60;99.90
22235;DHT22;11286;45.596;5.284;2022-12-22T17:08:24;12.70;99.90
22235;DHT22;11286;45.596;5.284;2022-12-22T17:10:51;12.70;99.90
22235;DHT22;11286;45.596;5.284;2022-12-22T17:13:18;12.80;99.90
22235;DHT22;11286;45.596;5.284;2022-12-22T17:15:44;12.90;99.90
22235;DHT22;11286;45.596;5.284;2022-12-22T17:18:19;13.00;99.90
22235;DHT22;11286;45.596;5.284;2022-12-22T17:20:47;12.80;99.90
22235;DHT22;11286;45.596;5.284;2022-12-22T17:23:37;12.90;99.90
22235;DHT22;11286;45.596;5.284;2022-12-22T17:26:09;12.80;99.90
22235;DHT22;11286;45.596;5.284;2022-12-22T17:28:36;12.70;99.90
22235;DHT22;11286;45.596;5.284;2022-12-22T17:31:03;12.60;99.90
22235;DHT22;11286;45.596;5.284;2022-12-22T17:33:28;12.50;99.90
22235;DHT22;11286;45.596;5.284;2022-12-22T17:35:55;12.50;99.90
22235;DHT22;11286;45.596;5.284;2022-12-22T17:38:21;12.50;99.90
22235;DHT22;11286;45.596;5.284;2022-12-22T17:40:50;12.50;99.90
22235;DHT22;11286;45.596;5.284;2022-12-22T17:43:18;12.60;99.90
22235;DHT22;11286;45.596;5.284;2022-12-22T17:45:44;12.50;99.90
22235;DHT22;11286;45.596;5.284;2022-12-22T17:48:11;12.50;99.90